sensor_id;sensor_type;location;lat;lon;timestamp;temperature;humidity
24632;DHT22;59977;48.782;9.190;2022-10-16T00:00:38;17.00;99.90
24632;DHT22;59977;48.782;9.190;2022-10-16T00:03:05;17.10;99.90
24632;DHT22;59977;48.782;9.190;2022-10-16T00:05:31;17.00;99.90
24632;DHT22;59977;48.782;9.190;2022-10-16T00:07:56;17.00;99.90
24632;DHT22;59977;48.782;9.190;2022-10-16T00:10:22;17.10;99.90
24632;DHT22;59977;48.782;9.190;2022-10-16T00:12:48;16.90;99.90
24632;DHT22;59977;48.782;9.190;2022-10-16T00:15:14;16.90;99.90
24632;DHT22;59977;48.782;9.190;2022-10-16T00:17:40;16.90;99.90
24632;DHT22;59977;48.782;9.190;2022-10-16T00:20:05;17.00;99.90
24632;DHT22;59977;48.782;9.190;2022-10-16T00:22:32;16.90;99.90
24632;DHT22;59977;48.782;9.190;2022-10-16T00:24:58;16.80;99.90
24632;DHT22;59977;48.782;9.190;2022-10-16T00:27:24;16.80;99.90
24632;DHT22;59977;48.782;9.190;2022-10-16T00:29:50;16.80;99.90
24632;DHT22;59977;48.782;9.190;2022-10-16T00:32:17;17.10;99.90
24632;DHT22;59977;48.782;9.190;2022-10-16T00:34:42;16.60;99.90
24632;DHT22;59977;48.782;9.190;2022-10-16T00:37:08;16.90;99.90
24632;DHT22;59977;48.782;9.190;2022-10-16T00:39:34;16.70;99.90
24632;DHT22;59977;48.782;9.190;2022-10-16T00:41:59;16.70;99.90
24632;DHT22;59977;48.782;9.190;2022-10-16T00:44:45;17.00;99.90
24632;DHT22;59977;48.782;9.190;2022-10-16T00:50:00;16.60;99.90
24632;DHT22;59977;48.782;9.190;2022-10-16T00:52:28;16.50;99.90
24632;DHT22;59977;48.782;9.190;2022-10-16T00:54:54;16.60;99.90
24632;DHT22;59977;48.782;9.190;2022-10-16T00:57:20;17.10;99.90
24632;DHT22;59977;48.782;9.190;2022-10-16T00:59:46;16.60;99.90
24632;DHT22;59977;48.782;9.190;2022-10-16T01:02:14;16.60;99.90
24632;DHT22;59977;48.782;9.190;2022-10-16T01:04:50;16.60;99.90
24632;DHT22;59977;48.782;9.190;2022-10-16T01:07:44;16.60;99.90
24632;DHT22;59977;48.782;9.190;2022-10-16T01:10:24;16.60;99.90
24632;DHT22;59977;48.782;9.190;2022-10-16T01:21:22;16.60;99.90
24632;DHT22;59977;48.782;9.190;2022-10-16T01:29:09;16.70;99.90
24632;DHT22;59977;48.782;9.190;2022-10-16T01:31:41;16.60;99.90
24632;DHT22;59977;48.782;9.190;2022-10-16T01:34:15;17.20;99.90
24632;DHT22;59977;48.782;9.190;2022-10-16T01:36:49;16.60;99.90
24632;DHT22;59977;48.782;9.190;2022-10-16T01:39:20;16.50;99.90
24632;DHT22;59977;48.782;9.190;2022-10-16T01:42:03;16.60;99.90
24632;DHT22;59977;48.782;9.190;2022-10-16T01:44:32;16.60;99.90
24632;DHT22;59977;48.782;9.190;2022-10-16T01:46:59;16.60;99.90
24632;DHT22;59977;48.782;9.190;2022-10-16T01:49:27;16.60;99.90
24632;DHT22;59977;48.782;9.190;2022-10-16T01:51:57;16.60;99.90
24632;DHT22;59977;48.782;9.190;2022-10-16T01:54:27;17.20;99.90
24632;DHT22;59977;48.782;9.190;2022-10-16T01:56:55;16.90;99.90
24632;DHT22;59977;48.782;9.190;2022-10-16T01:59:25;16.70;99.90
24632;DHT22;59977;48.782;9.190;2022-10-16T02:01:55;16.60;99.90
24632;DHT22;59977;48.782;9.190;2022-10-16T02:04:28;16.70;99.90
24632;DHT22;59977;48.782;9.190;2022-10-16T02:06:55;16.70;99.90
24632;DHT22;59977;48.782;9.190;2022-10-16T02:09:21;16.80;99.90
24632;DHT22;59977;48.782;9.190;2022-10-16T02:11:46;16.10;99.90
24632;DHT22;59977;48.782;9.190;2022-10-16T02:14:14;16.70;99.90
24632;DHT22;59977;48.782;9.190;2022-10-16T02:16:43;17.20;99.90
24632;DHT22;59977;48.782;9.190;2022-10-16T02:19:10;16.70;99.90
24632;DHT22;59977;48.782;9.190;2022-10-16T02:21:44;16.60;99.90
24632;DHT22;59977;48.782;9.190;2022-10-16T02:27:10;16.70;99.90
24632;DHT22;59977;48.782;9.190;2022-10-16T02:29:40;16.60;99.90
24632;DHT22;59977;48.782;9.190;2022-10-16T02:32:10;16.70;99.90
24632;DHT22;59977;48.782;9.190;2022-10-16T02:34:40;16.60;99.90
24632;DHT22;59977;48.782;9.190;2022-10-16T02:37:06;16.70;99.90
24632;DHT22;59977;48.782;9.190;2022-10-16T02:39:33;16.90;99.90
24632;DHT22;59977;48.782;9.190;2022-10-16T02:41:59;16.60;99.90
24632;DHT22;59977;48.782;9.190;2022-10-16T02:44:25;16.70;99.90
24632;DHT22;59977;48.782;9.190;2022-10-16T02:46:50;16.60;99.90
24632;DHT22;59977;48.782;9.190;2022-10-16T02:49:16;17.20;99.90
24632;DHT22;59977;48.782;9.190;2022-10-16T02:51:43;16.80;99.90
24632;DHT22;59977;48.782;9.190;2022-10-16T02:54:08;16.70;99.90
24632;DHT22;59977;48.782;9.190;2022-10-16T02:56:34;16.60;99.90
24632;DHT22;59977;48.782;9.190;2022-10-16T02:58:59;16.60;99.90
24632;DHT22;59977;48.782;9.190;2022-10-16T03:01:25;16.60;99.90
24632;DHT22;59977;48.782;9.190;2022-10-16T03:03:50;16.60;99.90
24632;DHT22;59977;48.782;9.190;2022-10-16T03:06:16;16.60;99.90
24632;DHT22;59977;48.782;9.190;2022-10-16T03:08:42;16.70;99.90
24632;DHT22;59977;48.782;9.190;2022-10-16T03:11:07;16.70;99.90
24632;DHT22;59977;48.782;9.190;2022-10-16T03:13:33;16.60;99.90
24632;DHT22;59977;48.782;9.190;2022-10-16T03:15:58;17.00;99.90
24632;DHT22;59977;48.782;9.190;2022-10-16T03:18:24;16.50;99.90
24632;DHT22;59977;48.782;9.190;2022-10-16T03:20:49;16.50;99.90
24632;DHT22;59977;48.782;9.190;2022-10-16T03:23:15;16.50;99.90
24632;DHT22;59977;48.782;9.190;2022-10-16T03:25:41;16.50;99.90
24632;DHT22;59977;48.782;9.190;2022-10-16T03:28:06;16.40;99.90
24632;DHT22;59977;48.782;9.190;2022-10-16T03:30:32;16.50;99.90
24632;DHT22;59977;48.782;9.190;2022-10-16T03:32:57;16.50;99.90
24632;DHT22;59977;48.782;9.190;2022-10-16T03:35:24;16.50;99.90
24632;DHT22;59977;48.782;9.190;2022-10-16T03:37:50;16.50;99.90
24632;DHT22;59977;48.782;9.190;2022-10-16T03:40:16;15.70;99.90
24632;DHT22;59977;48.782;9.190;2022-10-16T03:42:44;16.50;99.90
24632;DHT22;59977;48.782;9.190;2022-10-16T20:31:33;17.70;99.90
24632;DHT22;59977;48.782;9.190;2022-10-16T20:34:03;17.40;99.90
24632;DHT22;59977;48.782;9.190;2022-10-16T20:36:29;17.40;99.90
24632;DHT22;59977;48.782;9.190;2022-10-16T20:38:56;17.40;99.90
24632;DHT22;59977;48.782;9.190;2022-10-16T20:41:22;17.50;99.90
24632;DHT22;59977;48.782;9.190;2022-10-16T20:43:49;17.50;99.90
24632;DHT22;59977;48.782;9.190;2022-10-16T20:46:18;17.50;99.90
24632;DHT22;59977;48.782;9.190;2022-10-16T20:48:44;17.50;99.90
24632;DHT22;59977;48.782;9.190;2022-10-16T20:51:23;17.50;99.90
24632;DHT22;59977;48.782;9.190;2022-10-16T20:54:01;17.50;99.90
24632;DHT22;59977;48.782;9.190;2022-10-16T20:56:30;17.50;99.90
24632;DHT22;59977;48.782;9.190;2022-10-16T20:58:56;17.50;99.90
24632;DHT22;59977;48.782;9.190;2022-10-16T21:01:24;17.50;99.90
24632;DHT22;59977;48.782;9.190;2022-10-16T21:03:53;17.40;99.90
24632;DHT22;59977;48.782;9.190;2022-10-16T21:06:20;17.40;99.90
24632;DHT22;59977;48.782;9.190;2022-10-16T21:08:45;17.40;99.90
24632;DHT22;59977;48.782;9.190;2022-10-16T21:13:47;17.30;99.90
24632;DHT22;59977;48.782;9.190;2022-10-16T21:16:13;17.30;99.90
24632;DHT22;59977;48.782;9.190;2022-10-16T21:18:39;17.30;99.90
24632;DHT22;59977;48.782;9.190;2022-10-16T21:21:07;17.20;99.90
24632;DHT22;59977;48.782;9.190;2022-10-16T21:23:33;17.20;99.90
24632;DHT22;59977;48.782;9.190;2022-10-16T21:25:59;17.20;99.90
24632;DHT22;59977;48.782;9.190;2022-10-16T21:28:27;17.20;99.90
24632;DHT22;59977;48.782;9.190;2022-10-16T21:30:54;17.20;99.90
24632;DHT22;59977;48.782;9.190;2022-10-16T21:33:19;17.10;99.90
24632;DHT22;59977;48.782;9.190;2022-10-16T21:35:45;17.20;99.90
24632;DHT22;59977;48.782;9.190;2022-10-16T21:38:11;17.20;99.90
24632;DHT22;59977;48.782;9.190;2022-10-16T21:40:37;17.20;99.90
24632;DHT22;59977;48.782;9.190;2022-10-16T21:43:03;17.20;99.90
24632;DHT22;59977;48.782;9.190;2022-10-16T21:45:33;17.20;99.90
24632;DHT22;59977;48.782;9.190;2022-10-16T21:47:59;17.20;99.90
24632;DHT22;59977;48.782;9.190;2022-10-16T21:50:25;18.00;99.90
24632;DHT22;59977;48.782;9.190;2022-10-16T21:52:50;17.10;99.90
24632;DHT22;59977;48.782;9.190;2022-10-16T21:55:16;17.00;99.90
24632;DHT22;59977;48.782;9.190;2022-10-16T21:57:45;17.00;99.90
24632;DHT22;59977;48.782;9.190;2022-10-16T22:00:11;17.00;99.90
24632;DHT22;59977;48.782;9.190;2022-10-16T22:02:37;17.00;99.90
24632;DHT22;59977;48.782;9.190;2022-10-16T22:05:03;17.00;99.90
24632;DHT22;59977;48.782;9.190;2022-10-16T22:07:29;17.00;99.90
24632;DHT22;59977;48.782;9.190;2022-10-16T22:09:55;16.90;99.90
24632;DHT22;59977;48.782;9.190;2022-10-16T22:12:20;16.90;99.90
24632;DHT22;59977;48.782;9.190;2022-10-16T22:14:46;16.90;99.90
24632;DHT22;59977;48.782;9.190;2022-10-16T22:17:12;16.80;99.90
24632;DHT22;59977;48.782;9.190;2022-10-16T22:19:38;16.80;99.90
24632;DHT22;59977;48.782;9.190;2022-10-16T22:22:04;16.70;99.90
24632;DHT22;59977;48.782;9.190;2022-10-16T22:24:30;16.70;99.90
24632;DHT22;59977;48.782;9.190;2022-10-16T22:26:56;16.70;99.90
24632;DHT22;59977;48.782;9.190;2022-10-16T22:29:21;16.60;99.90
24632;DHT22;59977;48.782;9.190;2022-10-16T22:31:51;17.20;99.90
24632;DHT22;59977;48.782;9.190;2022-10-16T22:34:18;16.70;99.90
24632;DHT22;59977;48.782;9.190;2022-10-16T22:36:43;16.60;99.90
24632;DHT22;59977;48.782;9.190;2022-10-16T22:39:09;16.60;99.90
24632;DHT22;59977;48.782;9.190;2022-10-16T22:41:35;16.60;99.90
24632;DHT22;59977;48.782;9.190;2022-10-16T22:44:01;16.90;99.90
24632;DHT22;59977;48.782;9.190;2022-10-16T22:46:29;16.60;99.90
24632;DHT22;59977;48.782;9.190;2022-10-16T22:48:55;16.60;99.90
24632;DHT22;59977;48.782;9.190;2022-10-16T22:51:21;16.60;99.90
24632;DHT22;59977;48.782;9.190;2022-10-16T22:53:48;16.60;99.90
24632;DHT22;59977;48.782;9.190;2022-10-16T22:56:15;16.60;99.90
24632;DHT22;59977;48.782;9.190;2022-10-16T22:58:41;16.80;99.90
24632;DHT22;59977;48.782;9.190;2022-10-16T23:03:40;16.60;99.90
24632;DHT22;59977;48.782;9.190;2022-10-16T23:06:06;16.80;99.90
24632;DHT22;59977;48.782;9.190;2022-10-16T23:08:31;16.60;99.90
24632;DHT22;59977;48.782;9.190;2022-10-16T23:10:57;16.70;99.90
24632;DHT22;59977;48.782;9.190;2022-10-16T23:13:25;17.40;99.90
24632;DHT22;59977;48.782;9.190;2022-10-16T23:15:51;16.50;99.90
24632;DHT22;59977;48.782;9.190;2022-10-16T23:18:16;16.50;99.90
24632;DHT22;59977;48.782;9.190;2022-10-16T23:20:42;17.00;99.90
24632;DHT22;59977;48.782;9.190;2022-10-16T23:23:08;16.90;99.90
24632;DHT22;59977;48.782;9.190;2022-10-16T23:25:34;16.40;99.90
24632;DHT22;59977;48.782;9.190;2022-10-16T23:28:00;16.40;99.90
